< < Back
Terminal Aerodrome Forecast


Current Version              Previous Versions:   1  2  3  4  5  6  7  8  9  

Terminal Aerodrome Forecast

762
FTUS44 KMRX 020029 AAB
TAFTYS
TAF AMD
KTYS 020029Z 0200/0224 23011KT 4SM BR VCTS SCT050CB BKN200
      TEMPO 0200/0202 VRB16G28KT 2SM -TSRA OVC030CB
     FM020200 22006KT P6SM SCT060 BKN250
     FM020900 22003KT 5SM BR SCT015 BKN150
     FM021300 22008KT P6SM SCT035 BKN120
     FM022100 23010KT P6SM VCTS SCT050CB OVC070=



Latest METAR

961
SAUS80 KWBC 020100 RRA
MTRTYS
METAR KTYS 020053Z 21007KT 7SM FEW015 SCT041 BKN090 BKN250 20/17 A2998
RMK AO2 PK WND 25035/0025 RAB13E42 TSE42 SLP146 TS MOV NE
P0009 T02000172 $


USA.gov is the U.S. government's official web portal to all federal, state and local government web resources and services.